createdAt,value
2022-10-22T00:01:11.756Z,13.50
2022-10-22T00:03:38.397Z,13.60
2022-10-22T00:06:05.322Z,13.60
2022-10-22T00:08:32.077Z,13.60
2022-10-22T00:10:58.794Z,13.60
2022-10-22T00:13:25.831Z,13.60
2022-10-22T00:15:52.482Z,13.60
2022-10-22T00:18:19.117Z,13.60
2022-10-22T00:20:45.768Z,13.70
2022-10-22T00:23:12.398Z,13.60
2022-10-22T00:25:39.041Z,13.60
2022-10-22T00:28:05.823Z,13.60
2022-10-22T00:30:32.531Z,13.70
2022-10-22T00:32:59.202Z,13.70
2022-10-22T00:35:25.841Z,13.70
2022-10-22T00:37:52.482Z,13.70
2022-10-22T00:40:19.219Z,13.70
2022-10-22T00:42:46.102Z,13.70
2022-10-22T00:45:12.733Z,13.70
2022-10-22T00:47:44.439Z,13.80
2022-10-22T00:50:43.529Z,13.80
2022-10-22T00:53:14.571Z,13.80
2022-10-22T00:55:43.810Z,13.90
2022-10-22T00:58:12.591Z,13.80
2022-10-22T01:00:39.709Z,13.80
2022-10-22T01:03:08.001Z,13.80
2022-10-22T01:05:55.927Z,13.80
2022-10-22T01:08:36.256Z,13.80
2022-10-22T01:11:17.954Z,13.80
2022-10-22T01:13:53.694Z,13.80
2022-10-22T01:16:58.507Z,13.80
2022-10-22T01:19:40.502Z,13.80
2022-10-22T01:22:40.645Z,13.80
2022-10-22T01:25:16.398Z,13.80
2022-10-22T01:27:52.755Z,13.70
2022-10-22T01:30:20.353Z,13.70
2022-10-22T01:32:51.732Z,13.70
2022-10-22T01:35:24.252Z,13.70
2022-10-22T01:37:58.611Z,13.70
2022-10-22T01:40:27.467Z,13.70
2022-10-22T01:43:02.641Z,13.70
2022-10-22T01:45:32.994Z,13.70
2022-10-22T01:48:12.112Z,13.70
2022-10-22T01:50:48.002Z,13.70
2022-10-22T01:53:32.581Z,13.70
2022-10-22T01:56:06.534Z,13.70
2022-10-22T01:58:54.452Z,13.70
2022-10-22T02:01:33.513Z,13.70
2022-10-22T02:04:00.122Z,13.70
2022-10-22T02:06:29.502Z,13.60
2022-10-22T02:08:57.363Z,13.60
2022-10-22T02:11:24.023Z,13.60
2022-10-22T02:13:58.311Z,13.60
2022-10-22T02:16:30.487Z,13.70
2022-10-22T02:19:00.594Z,13.60
2022-10-22T02:21:28.322Z,13.60
2022-10-22T02:23:55.140Z,13.70
2022-10-22T02:26:27.789Z,13.70
2022-10-22T02:29:06.936Z,13.80
2022-10-22T02:31:37.530Z,13.80
2022-10-22T02:34:10.176Z,13.80
2022-10-22T02:36:39.023Z,13.70
2022-10-22T02:39:07.887Z,13.80
2022-10-22T02:41:35.137Z,13.70
2022-10-22T02:44:03.004Z,13.80
2022-10-22T02:46:29.650Z,13.70
2022-10-22T02:48:56.385Z,13.70
2022-10-22T02:51:23.117Z,13.70
2022-10-22T02:53:49.785Z,13.60
2022-10-22T02:56:16.451Z,13.60
2022-10-22T02:58:43.149Z,13.50
2022-10-22T03:01:12.391Z,13.40
2022-10-22T03:03:41.943Z,13.40
2022-10-22T03:06:08.921Z,13.30
2022-10-22T03:08:35.775Z,13.20
2022-10-22T03:11:02.486Z,13.20
2022-10-22T03:13:29.252Z,13.20
2022-10-22T03:15:55.936Z,13.20
2022-10-22T03:18:22.570Z,13.10
2022-10-22T03:20:49.243Z,13.10
2022-10-22T03:23:19.499Z,13.10
2022-10-22T03:25:48.261Z,13.00
2022-10-22T03:28:17.743Z,13.00
2022-10-22T03:30:44.418Z,12.90
2022-10-22T03:33:11.078Z,12.80
2022-10-22T03:35:43.850Z,12.80
2022-10-22T03:38:11.071Z,12.90
2022-10-22T03:40:38.227Z,12.70
2022-10-22T03:43:04.964Z,12.70
2022-10-22T03:45:31.706Z,12.60
2022-10-22T03:47:58.446Z,12.70
2022-10-22T03:50:25.174Z,12.70
2022-10-22T03:52:53.218Z,12.60
2022-10-22T03:55:19.860Z,12.70
2022-10-22T03:57:46.496Z,12.60
2022-10-22T04:00:13.354Z,12.60
2022-10-22T04:02:40.026Z,12.60
2022-10-22T04:05:07.366Z,12.70
2022-10-22T04:07:34.424Z,12.80
2022-10-22T04:10:01.040Z,12.90
2022-10-22T04:12:27.689Z,12.90
2022-10-22T04:14:54.352Z,12.90
2022-10-22T04:17:21.048Z,12.90
2022-10-22T04:19:47.689Z,13.10
2022-10-22T04:22:14.373Z,13.00
2022-10-22T04:24:41.119Z,12.90
2022-10-22T04:27:07.834Z,12.90
2022-10-22T04:29:34.474Z,13.00
2022-10-22T04:32:01.132Z,13.00
2022-10-22T04:34:28.983Z,13.00
2022-10-22T04:36:55.933Z,13.00
2022-10-22T04:39:22.679Z,13.00
2022-10-22T04:41:49.360Z,12.90
2022-10-22T04:44:17.214Z,12.90
2022-10-22T04:46:45.138Z,13.00
2022-10-22T04:49:11.907Z,12.90
2022-10-22T04:51:38.578Z,12.90
2022-10-22T04:54:05.499Z,12.90
2022-10-22T04:56:32.690Z,12.80
2022-10-22T04:59:01.664Z,12.70
2022-10-22T05:01:41.593Z,12.60
2022-10-22T05:04:12.844Z,12.60
2022-10-22T05:06:39.598Z,12.50
2022-10-22T05:09:13.516Z,12.50
2022-10-22T05:11:41.865Z,12.40
2022-10-22T05:14:09.446Z,12.50
2022-10-22T05:16:37.948Z,12.50
2022-10-22T05:19:05.371Z,12.50
2022-10-22T05:21:32.187Z,12.50
2022-10-22T05:24:02.281Z,12.40
2022-10-22T05:26:29.602Z,12.40
2022-10-22T05:28:56.511Z,12.40
2022-10-22T05:31:23.510Z,12.40
2022-10-22T05:33:50.208Z,12.40
2022-10-22T05:36:20.275Z,11.00
2022-10-22T05:38:46.969Z,12.20
2022-10-22T05:41:19.034Z,12.30
2022-10-22T05:43:46.040Z,12.10
2022-10-22T05:46:18.684Z,12.00
2022-10-22T05:48:55.959Z,11.90
2022-10-22T05:51:24.198Z,11.70
2022-10-22T05:53:57.082Z,11.70
2022-10-22T05:56:25.170Z,11.70
2022-10-22T05:58:52.098Z,11.70
2022-10-22T06:01:27.489Z,11.60
2022-10-22T06:03:56.284Z,11.60
2022-10-22T06:06:50.457Z,11.70
2022-10-22T06:09:22.199Z,11.80
2022-10-22T06:11:48.978Z,11.90
2022-10-22T06:14:16.378Z,11.90
2022-10-22T06:16:43.316Z,12.00
2022-10-22T06:19:12.706Z,12.10
2022-10-22T06:21:39.589Z,12.10
2022-10-22T06:24:06.617Z,12.10
2022-10-22T06:26:33.408Z,12.30
2022-10-22T06:29:00.768Z,12.30
2022-10-22T06:31:28.480Z,12.40
2022-10-22T06:33:56.780Z,12.50
2022-10-22T06:36:24.404Z,12.60
2022-10-22T06:38:54.928Z,12.70
2022-10-22T06:41:25.585Z,12.70
2022-10-22T06:43:57.204Z,12.70
2022-10-22T06:46:24.747Z,12.80
2022-10-22T06:49:03.008Z,12.80
2022-10-22T06:51:29.988Z,12.90
2022-10-22T06:53:57.967Z,12.90
2022-10-22T06:56:26.816Z,12.80
2022-10-22T06:58:55.722Z,12.80
2022-10-22T07:01:25.543Z,12.70
2022-10-22T07:03:52.662Z,12.70
2022-10-22T07:06:20.617Z,12.70
2022-10-22T07:08:47.478Z,12.70
2022-10-22T07:11:17.765Z,12.70
2022-10-22T07:13:45.208Z,12.70
2022-10-22T07:16:12.487Z,12.70
2022-10-22T07:18:40.332Z,12.80
2022-10-22T07:21:08.251Z,12.80
2022-10-22T07:23:35.598Z,12.80
2022-10-22T07:26:02.928Z,12.80
2022-10-22T07:28:30.699Z,12.80
2022-10-22T07:30:57.370Z,12.90
2022-10-22T07:33:24.058Z,12.90
2022-10-22T07:35:50.759Z,12.90
2022-10-22T07:38:17.430Z,13.00
2022-10-22T07:40:44.102Z,13.10
2022-10-22T07:43:10.727Z,13.40
2022-10-22T07:45:37.454Z,13.40
2022-10-22T07:48:04.805Z,13.70
2022-10-22T07:50:31.574Z,13.70
2022-10-22T07:52:58.552Z,13.80
2022-10-22T07:55:25.324Z,14.00
2022-10-22T07:57:52.021Z,14.10
2022-10-22T08:00:21.685Z,14.10
2022-10-22T08:02:51.174Z,14.20
2022-10-22T08:05:17.997Z,14.20
2022-10-22T08:07:44.801Z,14.20
2022-10-22T08:10:12.217Z,14.30
2022-10-22T08:12:39.674Z,14.20
2022-10-22T08:15:07.873Z,14.20
2022-10-22T08:17:34.567Z,14.30
2022-10-22T08:20:01.226Z,14.50
2022-10-22T08:22:27.954Z,14.80
2022-10-22T08:24:54.598Z,15.00
2022-10-22T08:27:21.832Z,15.30
2022-10-22T08:29:48.587Z,15.40
2022-10-22T08:32:15.483Z,15.50
2022-10-22T08:34:42.224Z,15.50
2022-10-22T08:37:10.472Z,15.50
2022-10-22T08:39:37.097Z,15.50
2022-10-22T08:42:24.794Z,15.40
2022-10-22T08:44:59.232Z,15.30
2022-10-22T08:47:44.614Z,15.30
2022-10-22T08:50:15.721Z,15.40
2022-10-22T08:52:48.545Z,15.60
2022-10-22T08:55:16.078Z,15.70
2022-10-22T08:58:04.801Z,15.80
2022-10-22T09:00:47.429Z,15.90
2022-10-22T09:03:49.302Z,16.10
2022-10-22T09:06:20.092Z,16.20
2022-10-22T09:08:47.800Z,16.20
2022-10-22T09:11:17.859Z,16.30
2022-10-22T09:13:46.177Z,16.30
2022-10-22T09:16:24.742Z,16.30
2022-10-22T09:19:14.487Z,16.40
2022-10-22T09:21:59.256Z,16.40
2022-10-22T09:24:34.678Z,16.50
2022-10-22T09:27:02.757Z,16.60
2022-10-22T09:29:33.398Z,16.60
2022-10-22T09:32:00.528Z,16.50
2022-10-22T09:34:29.163Z,16.50
2022-10-22T09:37:06.560Z,16.60
2022-10-22T09:39:46.140Z,16.60
2022-10-22T09:42:17.359Z,16.60
2022-10-22T09:44:47.710Z,16.60
2022-10-22T09:48:01.036Z,16.60
2022-10-22T09:50:45.889Z,16.50
2022-10-22T09:53:15.542Z,16.50
2022-10-22T09:55:43.084Z,16.40
2022-10-22T09:58:14.215Z,16.40
2022-10-22T10:00:43.870Z,16.30
2022-10-22T10:03:21.679Z,16.40
2022-10-22T10:05:52.823Z,16.30
2022-10-22T10:08:19.747Z,16.40
2022-10-22T10:11:08.188Z,16.40
2022-10-22T10:13:43.503Z,16.50
2022-10-22T10:16:24.348Z,16.40
2022-10-22T10:19:02.813Z,16.50
2022-10-22T10:21:44.286Z,16.50
2022-10-22T10:24:51.448Z,16.60
2022-10-22T10:27:30.938Z,16.70
2022-10-22T10:30:23.878Z,16.80
2022-10-22T10:33:40.296Z,16.80
2022-10-22T10:36:40.251Z,16.80
2022-10-22T10:39:27.792Z,16.90
2022-10-22T10:42:03.406Z,16.90
2022-10-22T10:44:51.367Z,16.80
2022-10-22T10:47:33.268Z,16.90
2022-10-22T10:50:30.778Z,16.90
2022-10-22T10:53:34.463Z,18.50
2022-10-22T10:56:13.685Z,17.20
2022-10-22T10:59:09.794Z,17.20
2022-10-22T11:01:45.366Z,17.20
2022-10-22T11:04:32.494Z,17.30
2022-10-22T11:07:11.136Z,17.30
2022-10-22T11:10:06.878Z,17.40
2022-10-22T11:12:42.081Z,17.40
2022-10-22T11:15:27.364Z,17.30
2022-10-22T11:18:16.690Z,17.50
2022-10-22T11:21:13.911Z,17.50
2022-10-22T11:23:49.662Z,17.60
2022-10-22T11:26:48.360Z,17.60
2022-10-22T11:29:23.021Z,17.50
2022-10-22T11:31:52.863Z,17.50
2022-10-22T11:34:39.652Z,17.40
2022-10-22T11:37:07.039Z,17.40
2022-10-22T11:39:59.717Z,17.40
2022-10-22T11:42:40.070Z,17.30
2022-10-22T11:45:13.794Z,17.10
2022-10-22T11:48:11.522Z,17.20
2022-10-22T11:50:50.786Z,17.20
2022-10-22T11:53:18.963Z,17.10
2022-10-22T11:55:55.320Z,16.90
2022-10-22T12:01:10.096Z,17.20
2022-10-22T12:03:48.562Z,17.30
2022-10-22T12:06:15.795Z,17.40
2022-10-22T12:08:54.090Z,17.40
2022-10-22T12:11:28.522Z,17.40
2022-10-22T12:14:26.354Z,17.40
2022-10-22T12:16:58.312Z,17.50
2022-10-22T12:19:30.607Z,17.50
2022-10-22T12:22:06.115Z,17.60
2022-10-22T12:24:37.801Z,17.60
2022-10-22T12:27:15.996Z,17.60
2022-10-22T12:29:43.924Z,17.60
2022-10-22T12:32:13.364Z,17.50
2022-10-22T12:34:47.704Z,17.40
2022-10-22T12:37:16.039Z,17.50
2022-10-22T12:39:44.210Z,17.60
2022-10-22T12:42:16.241Z,17.80
2022-10-22T12:44:45.833Z,17.90
2022-10-22T12:47:18.020Z,18.00
2022-10-22T12:49:48.530Z,18.00
2022-10-22T12:52:22.107Z,18.00
2022-10-22T12:54:55.014Z,17.70
2022-10-22T12:57:22.129Z,17.50
2022-10-22T12:59:51.223Z,17.30
2022-10-22T13:02:26.378Z,17.20
2022-10-22T13:05:17.217Z,17.10
2022-10-22T13:08:08.563Z,17.00
2022-10-22T13:10:41.355Z,17.00
2022-10-22T13:13:28.158Z,17.00
2022-10-22T13:15:56.806Z,17.00
2022-10-22T13:18:25.159Z,17.10
2022-10-22T13:21:03.125Z,17.10
2022-10-22T13:23:32.823Z,17.20
2022-10-22T13:26:17.110Z,17.20
2022-10-22T13:28:54.388Z,17.20
2022-10-22T13:31:33.412Z,17.10
2022-10-22T13:34:09.692Z,17.10
2022-10-22T13:36:38.400Z,17.20
2022-10-22T13:39:08.812Z,17.20
2022-10-22T13:44:06.778Z,17.10
2022-10-22T13:46:36.400Z,17.20
2022-10-22T13:49:04.649Z,17.20
2022-10-22T13:51:35.517Z,17.30
2022-10-22T13:54:03.869Z,17.40
2022-10-22T13:56:30.635Z,17.40
2022-10-22T13:58:57.284Z,17.40
2022-10-22T14:01:26.882Z,17.40
2022-10-22T14:03:57.925Z,17.30
2022-10-22T14:06:26.185Z,17.40
2022-10-22T14:08:58.979Z,17.70
2022-10-22T14:11:31.207Z,17.80
2022-10-22T14:13:57.932Z,17.90
2022-10-22T14:16:28.394Z,18.00
2022-10-22T14:18:55.977Z,18.00
2022-10-22T14:21:23.049Z,17.70
2022-10-22T14:23:51.599Z,17.70
2022-10-22T14:26:31.389Z,17.50
2022-10-22T14:29:13.901Z,17.30
2022-10-22T14:31:43.070Z,17.30
2022-10-22T14:34:12.441Z,17.30
2022-10-22T14:36:39.170Z,17.40
2022-10-22T14:39:05.820Z,17.40
2022-10-22T14:41:32.494Z,17.50
2022-10-22T14:46:26.770Z,17.50
2022-10-22T14:48:53.423Z,17.60
2022-10-22T14:51:21.223Z,17.50
2022-10-22T14:53:48.123Z,17.60
2022-10-22T14:56:18.079Z,17.60
2022-10-22T14:58:45.586Z,17.60
2022-10-22T15:01:12.641Z,17.70
2022-10-22T15:03:39.369Z,17.60
2022-10-22T15:06:06.902Z,17.60
2022-10-22T15:08:33.710Z,17.60
2022-10-22T15:11:02.005Z,17.60
2022-10-22T15:13:29.584Z,17.50
2022-10-22T15:15:57.372Z,17.40
2022-10-22T15:18:24.585Z,17.50
2022-10-22T15:21:04.621Z,17.50
2022-10-22T15:23:31.598Z,17.50
2022-10-22T15:25:58.582Z,17.40
2022-10-22T15:28:25.591Z,17.30
2022-10-22T15:30:57.688Z,17.10
2022-10-22T15:33:24.853Z,17.00
2022-10-22T15:35:51.652Z,16.90
2022-10-22T15:38:18.667Z,16.90
2022-10-22T15:40:45.794Z,16.90
2022-10-22T15:43:13.033Z,16.70
2022-10-22T15:45:40.026Z,16.60
2022-10-22T15:48:06.782Z,16.60
2022-10-22T15:50:38.483Z,16.60
2022-10-22T15:53:05.566Z,16.40
2022-10-22T15:55:32.281Z,16.40
2022-10-22T15:58:01.846Z,16.30
2022-10-22T16:00:30.292Z,16.20
2022-10-22T16:02:56.955Z,16.20
2022-10-22T16:05:23.703Z,16.10
2022-10-22T16:07:51.405Z,16.00
2022-10-22T16:10:18.146Z,16.00
2022-10-22T16:12:44.920Z,16.10
2022-10-22T16:15:11.776Z,16.00
2022-10-22T16:17:38.477Z,15.80
2022-10-22T16:20:05.637Z,15.90
2022-10-22T16:22:33.362Z,15.80
2022-10-22T16:24:59.993Z,15.70
2022-10-22T16:27:26.673Z,15.60
2022-10-22T16:29:53.289Z,15.40
2022-10-22T16:32:19.944Z,15.40
2022-10-22T16:34:46.653Z,15.20
2022-10-22T16:37:13.273Z,15.10
2022-10-22T16:39:39.887Z,15.00
2022-10-22T16:42:06.786Z,14.80
2022-10-22T16:44:33.435Z,14.70
2022-10-22T16:47:00.950Z,14.70
2022-10-22T16:49:27.771Z,14.70
2022-10-22T16:51:54.399Z,14.70
2022-10-22T16:56:48.592Z,14.80
2022-10-22T17:01:42.390Z,14.80
2022-10-22T17:04:09.625Z,14.80
2022-10-22T17:06:36.374Z,14.80
2022-10-22T17:09:03.492Z,14.80
2022-10-22T17:11:34.781Z,14.90
2022-10-22T17:14:02.836Z,14.90
2022-10-22T17:16:29.914Z,14.80
2022-10-22T17:18:57.917Z,14.80
2022-10-22T17:23:56.711Z,14.60
2022-10-22T17:26:26.328Z,14.60
2022-10-22T17:31:23.311Z,14.40
2022-10-22T17:33:51.916Z,14.30
2022-10-22T17:36:19.858Z,14.30
2022-10-22T17:38:50.409Z,14.20
2022-10-22T17:41:20.813Z,14.10
2022-10-22T17:46:20.784Z,14.10
2022-10-22T17:49:09.524Z,13.90
2022-10-22T17:51:36.583Z,14.00
2022-10-22T17:54:07.259Z,13.90
2022-10-22T17:56:37.269Z,13.80
2022-10-22T17:59:08.895Z,13.70
2022-10-22T18:01:37.594Z,13.70
2022-10-22T18:04:07.771Z,13.70
2022-10-22T18:09:05.960Z,13.70
2022-10-22T18:11:34.293Z,13.60
2022-10-22T18:14:00.994Z,13.60
2022-10-22T18:16:27.796Z,13.70
2022-10-22T18:18:56.303Z,13.60
2022-10-22T18:21:25.673Z,13.60
2022-10-22T18:26:22.943Z,13.50
2022-10-22T18:31:22.995Z,13.50
2022-10-22T18:33:50.574Z,13.40
2022-10-22T18:36:19.848Z,13.40
2022-10-22T18:38:51.085Z,13.30
2022-10-22T18:43:49.302Z,13.30
2022-10-22T18:46:15.949Z,13.20
2022-10-22T18:53:37.588Z,13.20
2022-10-22T18:56:09.201Z,13.10
2022-10-22T18:58:40.171Z,13.10
2022-10-22T19:01:15.797Z,13.00
2022-10-22T19:06:09.566Z,13.10
2022-10-22T19:08:37.149Z,13.00
2022-10-22T19:11:13.371Z,13.00
2022-10-22T19:16:09.358Z,13.00
2022-10-22T19:18:38.405Z,12.90
2022-10-22T19:21:05.537Z,12.90
2022-10-22T19:23:32.330Z,12.90
2022-10-22T19:26:14.844Z,12.90
2022-10-22T19:28:42.024Z,12.90
2022-10-22T19:31:10.777Z,12.90
2022-10-22T19:33:37.895Z,12.80
2022-10-22T19:36:12.664Z,12.90
2022-10-22T19:38:41.498Z,12.90
2022-10-22T19:41:09.605Z,12.80
2022-10-22T19:46:04.584Z,12.90
2022-10-22T19:51:02.794Z,12.80
2022-10-22T19:53:30.315Z,12.90
2022-10-22T19:56:00.606Z,12.80
2022-10-22T19:58:28.160Z,12.90
2022-10-22T20:03:23.108Z,12.80
2022-10-22T20:05:52.808Z,12.80
2022-10-22T20:10:49.168Z,12.90
2022-10-22T20:13:16.270Z,12.90
2022-10-22T20:18:09.997Z,12.90
2022-10-22T20:20:39.955Z,12.90
2022-10-22T20:23:08.558Z,12.90
2022-10-22T20:25:40.401Z,12.90
2022-10-22T20:28:07.026Z,13.00
2022-10-22T20:33:00.785Z,13.00
2022-10-22T20:37:54.493Z,13.00
2022-10-22T20:40:21.207Z,13.00
2022-10-22T20:42:49.297Z,13.00
2022-10-22T20:45:16.350Z,13.00
2022-10-22T20:47:51.329Z,13.00
2022-10-22T20:50:31.241Z,13.00
2022-10-22T20:55:25.050Z,13.00
2022-10-22T20:57:51.784Z,13.10
2022-10-22T21:02:45.732Z,13.10
2022-10-22T21:05:12.359Z,13.00
2022-10-22T21:10:07.013Z,12.90
2022-10-22T21:12:33.644Z,13.00
2022-10-22T21:15:00.289Z,12.90
2022-10-22T21:17:26.960Z,13.00
2022-10-22T21:22:20.677Z,12.90
2022-10-22T21:24:47.316Z,13.00
2022-10-22T21:27:14.048Z,13.00
2022-10-22T21:29:40.674Z,12.90
2022-10-22T21:37:05.810Z,12.90
2022-10-22T21:41:59.702Z,12.90
2022-10-22T21:44:26.374Z,12.80
2022-10-22T21:46:53.112Z,12.80
2022-10-22T21:49:19.765Z,12.80
2022-10-22T21:51:46.388Z,12.80
2022-10-22T21:56:40.939Z,12.70
2022-10-22T21:59:08.124Z,12.70
2022-10-22T22:04:02.495Z,12.70
2022-10-22T22:06:33.132Z,12.70
2022-10-22T22:09:01.150Z,12.60
2022-10-22T22:11:28.700Z,12.70
2022-10-22T22:13:56.895Z,12.70
2022-10-22T22:16:32.533Z,12.60
2022-10-22T22:19:01.786Z,12.60
2022-10-22T22:21:29.488Z,12.60
2022-10-22T22:23:57.803Z,12.40
2022-10-22T22:26:29.641Z,12.50
2022-10-22T22:28:58.259Z,12.50
2022-10-22T22:31:30.188Z,12.40
2022-10-22T22:34:08.664Z,12.40
2022-10-22T22:36:37.840Z,12.40
2022-10-22T22:39:06.597Z,12.30
2022-10-22T22:41:33.577Z,12.40
2022-10-22T22:44:00.386Z,12.30
2022-10-22T22:46:27.139Z,12.30
2022-10-22T22:48:53.883Z,12.20
2022-10-22T22:51:20.802Z,12.20
2022-10-22T22:53:47.651Z,12.20
2022-10-22T22:56:23.773Z,12.20
2022-10-22T22:58:50.477Z,12.30
2022-10-22T23:01:29.373Z,12.30
2022-10-22T23:04:00.936Z,12.30
2022-10-22T23:06:30.006Z,12.30
2022-10-22T23:08:57.441Z,12.20
2022-10-22T23:11:25.922Z,12.20
2022-10-22T23:13:55.270Z,12.20
2022-10-22T23:16:24.333Z,12.20
2022-10-22T23:18:53.404Z,12.10
2022-10-22T23:21:23.304Z,12.10
2022-10-22T23:23:52.851Z,12.10
2022-10-22T23:26:26.046Z,12.10
2022-10-22T23:31:21.757Z,12.10
2022-10-22T23:33:48.936Z,12.10
2022-10-22T23:36:15.912Z,12.00
2022-10-22T23:38:43.569Z,12.00
2022-10-22T23:41:10.372Z,12.00
2022-10-22T23:43:38.319Z,11.90
2022-10-22T23:46:07.172Z,11.90
2022-10-22T23:48:34.269Z,11.90
2022-10-22T23:51:10.147Z,11.80
2022-10-22T23:56:06.078Z,11.80
2022-10-22T23:58:33.917Z,11.80
